sensor_id;sensor_type;location;lat;lon;timestamp;P1;durP1;ratioP1;P2;durP2;ratioP2
2257;SDS011;1136;51.574;7.706;2023-06-22T00:01:18;6.20;;;5.70;;
2257;SDS011;1136;51.574;7.706;2023-06-22T00:03:45;6.03;;;5.20;;
2257;SDS011;1136;51.574;7.706;2023-06-22T00:06:12;5.90;;;5.20;;
2257;SDS011;1136;51.574;7.706;2023-06-22T00:08:39;5.23;;;4.93;;
2257;SDS011;1136;51.574;7.706;2023-06-22T00:11:06;5.67;;;5.27;;
2257;SDS011;1136;51.574;7.706;2023-06-22T00:13:32;6.30;;;5.80;;
2257;SDS011;1136;51.574;7.706;2023-06-22T00:15:59;6.27;;;5.73;;
2257;SDS011;1136;51.574;7.706;2023-06-22T00:18:26;6.90;;;6.30;;
2257;SDS011;1136;51.574;7.706;2023-06-22T00:20:55;8.00;;;7.20;;
2257;SDS011;1136;51.574;7.706;2023-06-22T00:23:25;7.03;;;6.50;;
2257;SDS011;1136;51.574;7.706;2023-06-22T00:25:52;6.20;;;5.60;;
2257;SDS011;1136;51.574;7.706;2023-06-22T00:28:19;6.60;;;6.00;;
2257;SDS011;1136;51.574;7.706;2023-06-22T00:30:45;5.67;;;5.17;;
2257;SDS011;1136;51.574;7.706;2023-06-22T00:33:12;5.40;;;5.00;;
2257;SDS011;1136;51.574;7.706;2023-06-22T00:35:39;7.87;;;5.83;;
2257;SDS011;1136;51.574;7.706;2023-06-22T00:38:07;5.80;;;5.03;;
2257;SDS011;1136;51.574;7.706;2023-06-22T00:40:35;5.10;;;4.70;;
2257;SDS011;1136;51.574;7.706;2023-06-22T00:43:02;6.53;;;5.87;;
2257;SDS011;1136;51.574;7.706;2023-06-22T00:45:28;6.47;;;5.87;;
2257;SDS011;1136;51.574;7.706;2023-06-22T00:47:58;6.33;;;5.83;;
2257;SDS011;1136;51.574;7.706;2023-06-22T00:50:26;6.43;;;6.03;;
2257;SDS011;1136;51.574;7.706;2023-06-22T00:52:55;6.50;;;5.97;;
2257;SDS011;1136;51.574;7.706;2023-06-22T00:55:23;8.60;;;6.70;;
2257;SDS011;1136;51.574;7.706;2023-06-22T00:57:50;9.90;;;6.20;;
2257;SDS011;1136;51.574;7.706;2023-06-22T01:00:17;7.07;;;6.50;;
2257;SDS011;1136;51.574;7.706;2023-06-22T01:02:46;7.40;;;6.90;;
2257;SDS011;1136;51.574;7.706;2023-06-22T01:05:13;7.20;;;6.60;;
2257;SDS011;1136;51.574;7.706;2023-06-22T01:07:54;6.93;;;6.03;;
2257;SDS011;1136;51.574;7.706;2023-06-22T01:16:18;7.03;;;6.53;;
2257;SDS011;1136;51.574;7.706;2023-06-22T01:18:51;7.80;;;6.93;;
2257;SDS011;1136;51.574;7.706;2023-06-22T01:21:21;8.23;;;7.53;;
2257;SDS011;1136;51.574;7.706;2023-06-22T01:29:10;7.57;;;6.70;;
2257;SDS011;1136;51.574;7.706;2023-06-22T01:31:40;7.40;;;6.90;;
2257;SDS011;1136;51.574;7.706;2023-06-22T01:34:08;7.80;;;7.10;;
2257;SDS011;1136;51.574;7.706;2023-06-22T01:36:35;7.67;;;6.67;;
2257;SDS011;1136;51.574;7.706;2023-06-22T01:39:02;8.30;;;7.50;;
2257;SDS011;1136;51.574;7.706;2023-06-22T01:41:30;8.47;;;6.97;;
2257;SDS011;1136;51.574;7.706;2023-06-22T01:43:59;10.93;;;6.67;;
2257;SDS011;1136;51.574;7.706;2023-06-22T01:46:27;6.90;;;6.40;;
2257;SDS011;1136;51.574;7.706;2023-06-22T01:48:53;8.10;;;7.37;;
2257;SDS011;1136;51.574;7.706;2023-06-22T01:51:20;10.53;;;8.33;;
2257;SDS011;1136;51.574;7.706;2023-06-22T01:53:47;9.23;;;8.43;;
2257;SDS011;1136;51.574;7.706;2023-06-22T01:56:16;8.20;;;7.50;;
2257;SDS011;1136;51.574;7.706;2023-06-22T01:58:55;8.80;;;8.03;;
2257;SDS011;1136;51.574;7.706;2023-06-22T02:01:28;9.40;;;7.73;;
2257;SDS011;1136;51.574;7.706;2023-06-22T02:04:04;8.07;;;6.77;;
2257;SDS011;1136;51.574;7.706;2023-06-22T02:06:36;8.00;;;7.20;;
2257;SDS011;1136;51.574;7.706;2023-06-22T02:09:08;6.90;;;6.40;;
2257;SDS011;1136;51.574;7.706;2023-06-22T02:11:36;7.57;;;6.97;;
2257;SDS011;1136;51.574;7.706;2023-06-22T02:14:04;7.83;;;7.13;;
2257;SDS011;1136;51.574;7.706;2023-06-22T02:16:32;7.40;;;6.90;;
2257;SDS011;1136;51.574;7.706;2023-06-22T02:18:59;7.40;;;6.90;;
2257;SDS011;1136;51.574;7.706;2023-06-22T02:21:29;7.53;;;6.67;;
2257;SDS011;1136;51.574;7.706;2023-06-22T02:23:57;6.90;;;6.30;;
2257;SDS011;1136;51.574;7.706;2023-06-22T02:26:24;7.50;;;6.80;;
2257;SDS011;1136;51.574;7.706;2023-06-22T02:28:51;8.23;;;7.63;;
2257;SDS011;1136;51.574;7.706;2023-06-22T02:31:18;7.60;;;7.00;;
2257;SDS011;1136;51.574;7.706;2023-06-22T02:33:46;7.87;;;7.27;;
2257;SDS011;1136;51.574;7.706;2023-06-22T02:36:12;7.97;;;7.27;;
2257;SDS011;1136;51.574;7.706;2023-06-22T02:38:43;11.63;;;8.40;;
2257;SDS011;1136;51.574;7.706;2023-06-22T02:41:14;7.80;;;7.13;;
2257;SDS011;1136;51.574;7.706;2023-06-22T02:43:44;8.20;;;7.47;;
2257;SDS011;1136;51.574;7.706;2023-06-22T02:46:12;8.20;;;7.40;;
2257;SDS011;1136;51.574;7.706;2023-06-22T02:48:39;8.20;;;7.37;;
2257;SDS011;1136;51.574;7.706;2023-06-22T02:51:07;8.30;;;7.50;;
2257;SDS011;1136;51.574;7.706;2023-06-22T02:53:33;9.37;;;8.43;;
2257;SDS011;1136;51.574;7.706;2023-06-22T02:56:02;9.83;;;9.03;;
2257;SDS011;1136;51.574;7.706;2023-06-22T02:58:31;8.83;;;8.13;;
2257;SDS011;1136;51.574;7.706;2023-06-22T03:01:05;10.77;;;9.80;;
2257;SDS011;1136;51.574;7.706;2023-06-22T03:03:32;11.53;;;10.53;;
2257;SDS011;1136;51.574;7.706;2023-06-22T03:05:58;9.97;;;9.20;;
2257;SDS011;1136;51.574;7.706;2023-06-22T03:08:27;10.37;;;9.60;;
2257;SDS011;1136;51.574;7.706;2023-06-22T03:10:55;10.80;;;9.90;;
2257;SDS011;1136;51.574;7.706;2023-06-22T03:13:21;11.33;;;10.30;;
2257;SDS011;1136;51.574;7.706;2023-06-22T03:15:48;10.63;;;9.73;;
2257;SDS011;1136;51.574;7.706;2023-06-22T03:18:14;10.67;;;9.87;;
2257;SDS011;1136;51.574;7.706;2023-06-22T03:20:41;12.60;;;11.40;;
2257;SDS011;1136;51.574;7.706;2023-06-22T03:23:08;9.97;;;9.17;;
2257;SDS011;1136;51.574;7.706;2023-06-22T03:25:35;11.33;;;10.43;;
2257;SDS011;1136;51.574;7.706;2023-06-22T03:28:01;12.03;;;11.00;;
2257;SDS011;1136;51.574;7.706;2023-06-22T03:30:28;12.27;;;11.13;;
2257;SDS011;1136;51.574;7.706;2023-06-22T03:32:55;12.10;;;11.00;;
2257;SDS011;1136;51.574;7.706;2023-06-22T03:35:22;11.63;;;10.73;;
2257;SDS011;1136;51.574;7.706;2023-06-22T03:37:49;12.27;;;11.07;;
2257;SDS011;1136;51.574;7.706;2023-06-22T03:40:15;12.90;;;11.90;;
2257;SDS011;1136;51.574;7.706;2023-06-22T03:42:42;12.60;;;11.53;;
2257;SDS011;1136;51.574;7.706;2023-06-22T03:45:08;13.33;;;11.93;;
2257;SDS011;1136;51.574;7.706;2023-06-22T03:47:35;12.63;;;11.40;;
2257;SDS011;1136;51.574;7.706;2023-06-22T03:50:02;12.03;;;11.13;;
2257;SDS011;1136;51.574;7.706;2023-06-22T03:52:30;13.40;;;12.30;;
2257;SDS011;1136;51.574;7.706;2023-06-22T03:54:56;13.20;;;11.87;;
2257;SDS011;1136;51.574;7.706;2023-06-22T03:57:23;13.40;;;12.30;;
2257;SDS011;1136;51.574;7.706;2023-06-22T03:59:50;13.63;;;12.53;;
2257;SDS011;1136;51.574;7.706;2023-06-22T04:02:16;11.80;;;10.70;;
2257;SDS011;1136;51.574;7.706;2023-06-22T04:04:43;15.03;;;11.67;;
2257;SDS011;1136;51.574;7.706;2023-06-22T04:07:10;11.60;;;10.70;;
2257;SDS011;1136;51.574;7.706;2023-06-22T04:09:36;13.17;;;12.17;;
2257;SDS011;1136;51.574;7.706;2023-06-22T04:12:03;12.60;;;11.30;;
2257;SDS011;1136;51.574;7.706;2023-06-22T04:14:30;12.67;;;11.47;;
2257;SDS011;1136;51.574;7.706;2023-06-22T04:16:57;14.40;;;13.20;;
2257;SDS011;1136;51.574;7.706;2023-06-22T04:19:24;13.20;;;12.10;;
2257;SDS011;1136;51.574;7.706;2023-06-22T04:21:50;14.23;;;13.17;;
2257;SDS011;1136;51.574;7.706;2023-06-22T04:24:17;14.07;;;12.77;;
2257;SDS011;1136;51.574;7.706;2023-06-22T04:26:43;14.70;;;13.40;;
2257;SDS011;1136;51.574;7.706;2023-06-22T04:29:11;14.93;;;13.60;;
2257;SDS011;1136;51.574;7.706;2023-06-22T04:31:38;13.27;;;11.97;;
2257;SDS011;1136;51.574;7.706;2023-06-22T04:34:05;13.47;;;12.27;;
2257;SDS011;1136;51.574;7.706;2023-06-22T04:36:34;14.27;;;12.83;;
2257;SDS011;1136;51.574;7.706;2023-06-22T04:39:04;15.40;;;14.03;;
2257;SDS011;1136;51.574;7.706;2023-06-22T04:41:32;16.20;;;14.60;;
2257;SDS011;1136;51.574;7.706;2023-06-22T04:44:08;15.93;;;14.30;;
2257;SDS011;1136;51.574;7.706;2023-06-22T04:46:50;14.30;;;13.00;;
2257;SDS011;1136;51.574;7.706;2023-06-22T04:49:20;16.30;;;14.90;;
2257;SDS011;1136;51.574;7.706;2023-06-22T04:51:48;15.27;;;13.80;;
2257;SDS011;1136;51.574;7.706;2023-06-22T04:54:16;14.57;;;13.03;;
2257;SDS011;1136;51.574;7.706;2023-06-22T04:56:42;15.20;;;13.90;;
2257;SDS011;1136;51.574;7.706;2023-06-22T04:59:09;13.33;;;12.23;;
2257;SDS011;1136;51.574;7.706;2023-06-22T05:01:39;15.50;;;14.20;;
2257;SDS011;1136;51.574;7.706;2023-06-22T05:04:05;12.60;;;11.50;;
2257;SDS011;1136;51.574;7.706;2023-06-22T05:06:33;14.17;;;13.07;;
2257;SDS011;1136;51.574;7.706;2023-06-22T05:08:59;14.03;;;12.67;;
2257;SDS011;1136;51.574;7.706;2023-06-22T05:11:26;14.23;;;12.97;;
2257;SDS011;1136;51.574;7.706;2023-06-22T05:13:53;14.03;;;12.63;;
2257;SDS011;1136;51.574;7.706;2023-06-22T05:16:21;13.67;;;12.37;;
2257;SDS011;1136;51.574;7.706;2023-06-22T05:18:51;11.67;;;10.70;;
2257;SDS011;1136;51.574;7.706;2023-06-22T05:21:21;13.77;;;10.70;;
2257;SDS011;1136;51.574;7.706;2023-06-22T05:23:52;11.67;;;10.23;;
2257;SDS011;1136;51.574;7.706;2023-06-22T05:26:20;12.50;;;11.33;;
2257;SDS011;1136;51.574;7.706;2023-06-22T05:28:47;13.50;;;12.20;;
2257;SDS011;1136;51.574;7.706;2023-06-22T05:31:14;13.00;;;11.77;;
2257;SDS011;1136;51.574;7.706;2023-06-22T05:33:41;15.10;;;12.27;;
2257;SDS011;1136;51.574;7.706;2023-06-22T05:36:08;15.30;;;12.10;;
2257;SDS011;1136;51.574;7.706;2023-06-22T05:38:36;23.40;;;13.57;;
2257;SDS011;1136;51.574;7.706;2023-06-22T05:41:03;15.03;;;13.77;;
2257;SDS011;1136;51.574;7.706;2023-06-22T05:43:30;16.50;;;14.50;;
2257;SDS011;1136;51.574;7.706;2023-06-22T05:45:57;14.73;;;12.57;;
2257;SDS011;1136;51.574;7.706;2023-06-22T05:48:24;16.87;;;15.03;;
2257;SDS011;1136;51.574;7.706;2023-06-22T05:50:51;18.40;;;16.53;;
2257;SDS011;1136;51.574;7.706;2023-06-22T05:53:17;18.80;;;17.03;;
2257;SDS011;1136;51.574;7.706;2023-06-22T05:55:44;18.30;;;16.60;;
2257;SDS011;1136;51.574;7.706;2023-06-22T05:58:11;19.33;;;17.33;;
2257;SDS011;1136;51.574;7.706;2023-06-22T06:00:39;18.70;;;16.73;;
2257;SDS011;1136;51.574;7.706;2023-06-22T06:03:07;17.40;;;16.00;;
2257;SDS011;1136;51.574;7.706;2023-06-22T06:05:34;19.13;;;17.43;;
2257;SDS011;1136;51.574;7.706;2023-06-22T06:08:01;20.33;;;17.73;;
2257;SDS011;1136;51.574;7.706;2023-06-22T06:10:29;20.87;;;16.07;;
2257;SDS011;1136;51.574;7.706;2023-06-22T06:12:57;19.37;;;17.50;;
2257;SDS011;1136;51.574;7.706;2023-06-22T06:15:23;21.47;;;19.20;;
2257;SDS011;1136;51.574;7.706;2023-06-22T06:17:51;21.97;;;19.43;;
2257;SDS011;1136;51.574;7.706;2023-06-22T06:20:19;18.70;;;17.00;;
2257;SDS011;1136;51.574;7.706;2023-06-22T06:22:47;19.73;;;17.53;;
2257;SDS011;1136;51.574;7.706;2023-06-22T06:25:14;20.50;;;18.33;;
2257;SDS011;1136;51.574;7.706;2023-06-22T06:27:48;24.13;;;19.33;;
2257;SDS011;1136;51.574;7.706;2023-06-22T06:30:17;22.13;;;19.53;;
2257;SDS011;1136;51.574;7.706;2023-06-22T06:32:44;20.73;;;18.80;;
2257;SDS011;1136;51.574;7.706;2023-06-22T06:35:13;20.20;;;18.40;;
2257;SDS011;1136;51.574;7.706;2023-06-22T06:37:41;19.67;;;18.10;;
2257;SDS011;1136;51.574;7.706;2023-06-22T06:40:10;21.70;;;19.53;;
2257;SDS011;1136;51.574;7.706;2023-06-22T06:42:38;21.20;;;19.20;;
2257;SDS011;1136;51.574;7.706;2023-06-22T06:45:12;19.97;;;18.00;;
2257;SDS011;1136;51.574;7.706;2023-06-22T06:47:42;20.53;;;18.30;;
2257;SDS011;1136;51.574;7.706;2023-06-22T06:50:09;18.60;;;16.70;;
2257;SDS011;1136;51.574;7.706;2023-06-22T06:52:36;20.97;;;18.97;;
2257;SDS011;1136;51.574;7.706;2023-06-22T06:55:04;20.30;;;18.37;;
2257;SDS011;1136;51.574;7.706;2023-06-22T06:57:38;16.33;;;14.77;;
2257;SDS011;1136;51.574;7.706;2023-06-22T07:00:05;18.77;;;16.90;;
2257;SDS011;1136;51.574;7.706;2023-06-22T07:02:36;18.10;;;16.50;;
2257;SDS011;1136;51.574;7.706;2023-06-22T07:05:03;18.17;;;16.27;;
2257;SDS011;1136;51.574;7.706;2023-06-22T07:07:30;16.07;;;14.57;;
2257;SDS011;1136;51.574;7.706;2023-06-22T07:09:58;19.03;;;17.17;;
2257;SDS011;1136;51.574;7.706;2023-06-22T07:12:25;18.50;;;16.77;;
2257;SDS011;1136;51.574;7.706;2023-06-22T07:14:51;18.60;;;17.10;;
2257;SDS011;1136;51.574;7.706;2023-06-22T07:17:19;21.40;;;19.20;;
2257;SDS011;1136;51.574;7.706;2023-06-22T07:19:45;21.00;;;19.33;;
2257;SDS011;1136;51.574;7.706;2023-06-22T07:22:12;19.63;;;18.03;;
2257;SDS011;1136;51.574;7.706;2023-06-22T07:24:39;19.60;;;18.10;;
2257;SDS011;1136;51.574;7.706;2023-06-22T07:27:07;17.87;;;16.47;;
2257;SDS011;1136;51.574;7.706;2023-06-22T07:29:37;19.50;;;17.80;;
2257;SDS011;1136;51.574;7.706;2023-06-22T07:32:06;20.23;;;18.47;;
2257;SDS011;1136;51.574;7.706;2023-06-22T07:34:33;21.33;;;19.63;;
2257;SDS011;1136;51.574;7.706;2023-06-22T07:37:00;17.73;;;16.33;;
2257;SDS011;1136;51.574;7.706;2023-06-22T07:39:27;18.67;;;17.07;;
2257;SDS011;1136;51.574;7.706;2023-06-22T07:41:54;18.40;;;16.70;;
2257;SDS011;1136;51.574;7.706;2023-06-22T07:44:21;17.80;;;15.80;;
2257;SDS011;1136;51.574;7.706;2023-06-22T07:46:47;18.30;;;16.70;;
2257;SDS011;1136;51.574;7.706;2023-06-22T07:49:14;19.60;;;17.80;;
2257;SDS011;1136;51.574;7.706;2023-06-22T07:51:41;18.27;;;16.87;;
2257;SDS011;1136;51.574;7.706;2023-06-22T07:54:08;22.37;;;20.27;;
2257;SDS011;1136;51.574;7.706;2023-06-22T07:56:36;22.83;;;20.70;;
2257;SDS011;1136;51.574;7.706;2023-06-22T07:59:03;20.00;;;18.40;;
2257;SDS011;1136;51.574;7.706;2023-06-22T08:01:30;20.97;;;19.20;;
2257;SDS011;1136;51.574;7.706;2023-06-22T08:03:56;21.17;;;19.27;;
2257;SDS011;1136;51.574;7.706;2023-06-22T08:06:23;22.47;;;20.40;;
2257;SDS011;1136;51.574;7.706;2023-06-22T08:08:50;19.77;;;18.07;;
2257;SDS011;1136;51.574;7.706;2023-06-22T08:11:19;20.60;;;18.80;;
2257;SDS011;1136;51.574;7.706;2023-06-22T08:13:45;22.97;;;20.77;;
2257;SDS011;1136;51.574;7.706;2023-06-22T08:16:12;17.93;;;16.53;;
2257;SDS011;1136;51.574;7.706;2023-06-22T08:18:38;22.80;;;20.90;;
2257;SDS011;1136;51.574;7.706;2023-06-22T08:21:05;20.47;;;18.83;;
2257;SDS011;1136;51.574;7.706;2023-06-22T08:23:31;20.93;;;19.13;;
2257;SDS011;1136;51.574;7.706;2023-06-22T08:25:58;23.47;;;21.57;;
2257;SDS011;1136;51.574;7.706;2023-06-22T08:28:25;22.27;;;20.27;;
2257;SDS011;1136;51.574;7.706;2023-06-22T08:30:51;23.37;;;21.27;;
2257;SDS011;1136;51.574;7.706;2023-06-22T08:33:18;23.67;;;21.77;;
2257;SDS011;1136;51.574;7.706;2023-06-22T08:35:57;22.27;;;20.57;;
2257;SDS011;1136;51.574;7.706;2023-06-22T08:38:24;22.20;;;20.30;;
2257;SDS011;1136;51.574;7.706;2023-06-22T08:40:51;21.00;;;19.27;;
2257;SDS011;1136;51.574;7.706;2023-06-22T08:43:17;22.93;;;21.07;;
2257;SDS011;1136;51.574;7.706;2023-06-22T08:45:45;20.50;;;18.53;;
2257;SDS011;1136;51.574;7.706;2023-06-22T08:48:12;21.37;;;19.57;;
2257;SDS011;1136;51.574;7.706;2023-06-22T08:50:38;19.93;;;18.43;;
2257;SDS011;1136;51.574;7.706;2023-06-22T08:53:07;18.40;;;17.00;;
2257;SDS011;1136;51.574;7.706;2023-06-22T08:55:33;20.17;;;18.53;;
2257;SDS011;1136;51.574;7.706;2023-06-22T08:58:00;18.17;;;16.67;;
2257;SDS011;1136;51.574;7.706;2023-06-22T09:00:26;17.37;;;15.90;;
2257;SDS011;1136;51.574;7.706;2023-06-22T09:02:55;17.67;;;16.10;;
2257;SDS011;1136;51.574;7.706;2023-06-22T09:05:25;16.33;;;14.83;;
2257;SDS011;1136;51.574;7.706;2023-06-22T09:07:58;16.73;;;15.43;;
2257;SDS011;1136;51.574;7.706;2023-06-22T09:10:25;16.57;;;15.17;;
2257;SDS011;1136;51.574;7.706;2023-06-22T09:12:52;17.83;;;16.43;;
2257;SDS011;1136;51.574;7.706;2023-06-22T09:15:19;13.33;;;12.13;;
2257;SDS011;1136;51.574;7.706;2023-06-22T09:17:46;14.60;;;13.40;;
2257;SDS011;1136;51.574;7.706;2023-06-22T09:20:13;11.57;;;10.47;;
2257;SDS011;1136;51.574;7.706;2023-06-22T09:22:40;10.60;;;9.80;;
2257;SDS011;1136;51.574;7.706;2023-06-22T09:25:06;12.80;;;11.80;;
2257;SDS011;1136;51.574;7.706;2023-06-22T09:27:33;10.63;;;9.93;;
2257;SDS011;1136;51.574;7.706;2023-06-22T09:30:00;39.73;;;13.70;;
2257;SDS011;1136;51.574;7.706;2023-06-22T09:32:27;11.77;;;10.77;;
2257;SDS011;1136;51.574;7.706;2023-06-22T09:34:53;11.83;;;10.93;;
2257;SDS011;1136;51.574;7.706;2023-06-22T09:37:20;11.63;;;10.63;;
2257;SDS011;1136;51.574;7.706;2023-06-22T09:39:46;11.77;;;10.97;;
2257;SDS011;1136;51.574;7.706;2023-06-22T09:42:13;13.27;;;12.27;;
2257;SDS011;1136;51.574;7.706;2023-06-22T09:44:40;12.10;;;11.30;;
2257;SDS011;1136;51.574;7.706;2023-06-22T09:47:06;13.10;;;12.10;;
2257;SDS011;1136;51.574;7.706;2023-06-22T09:49:33;13.83;;;13.03;;
2257;SDS011;1136;51.574;7.706;2023-06-22T09:52:13;13.50;;;12.60;;
2257;SDS011;1136;51.574;7.706;2023-06-22T09:54:40;15.30;;;14.20;;
2257;SDS011;1136;51.574;7.706;2023-06-22T09:57:06;13.67;;;12.67;;
2257;SDS011;1136;51.574;7.706;2023-06-22T09:59:33;12.67;;;11.80;;
2257;SDS011;1136;51.574;7.706;2023-06-22T10:02:00;12.57;;;11.70;;
2257;SDS011;1136;51.574;7.706;2023-06-22T10:04:27;12.20;;;11.40;;
2257;SDS011;1136;51.574;7.706;2023-06-22T10:06:53;11.90;;;10.80;;
2257;SDS011;1136;51.574;7.706;2023-06-22T10:09:20;11.50;;;10.60;;
2257;SDS011;1136;51.574;7.706;2023-06-22T10:11:47;12.43;;;11.23;;
2257;SDS011;1136;51.574;7.706;2023-06-22T10:14:14;11.17;;;10.20;;
2257;SDS011;1136;51.574;7.706;2023-06-22T10:16:41;8.80;;;8.23;;
2257;SDS011;1136;51.574;7.706;2023-06-22T10:19:08;12.33;;;11.20;;
2257;SDS011;1136;51.574;7.706;2023-06-22T10:21:34;11.50;;;10.40;;
2257;SDS011;1136;51.574;7.706;2023-06-22T10:24:01;12.20;;;11.20;;
2257;SDS011;1136;51.574;7.706;2023-06-22T10:26:33;9.87;;;9.13;;
2257;SDS011;1136;51.574;7.706;2023-06-22T10:29:00;10.43;;;9.73;;
2257;SDS011;1136;51.574;7.706;2023-06-22T10:31:42;11.10;;;10.23;;
2257;SDS011;1136;51.574;7.706;2023-06-22T10:34:09;10.47;;;9.70;;
2257;SDS011;1136;51.574;7.706;2023-06-22T10:36:36;9.63;;;8.87;;
2257;SDS011;1136;51.574;7.706;2023-06-22T10:39:02;10.70;;;9.90;;
2257;SDS011;1136;51.574;7.706;2023-06-22T10:41:29;10.70;;;9.80;;
2257;SDS011;1136;51.574;7.706;2023-06-22T10:43:57;10.63;;;9.63;;
2257;SDS011;1136;51.574;7.706;2023-06-22T10:46:24;10.93;;;9.97;;
2257;SDS011;1136;51.574;7.706;2023-06-22T10:48:52;9.70;;;9.00;;
2257;SDS011;1136;51.574;7.706;2023-06-22T10:51:20;11.00;;;10.20;;
2257;SDS011;1136;51.574;7.706;2023-06-22T10:53:47;12.77;;;11.87;;
2257;SDS011;1136;51.574;7.706;2023-06-22T10:56:14;11.30;;;10.50;;
2257;SDS011;1136;51.574;7.706;2023-06-22T10:58:40;11.60;;;10.40;;
2257;SDS011;1136;51.574;7.706;2023-06-22T11:01:07;10.43;;;9.57;;
2257;SDS011;1136;51.574;7.706;2023-06-22T11:03:42;10.40;;;9.60;;
2257;SDS011;1136;51.574;7.706;2023-06-22T11:06:08;11.80;;;10.70;;
2257;SDS011;1136;51.574;7.706;2023-06-22T11:08:35;11.00;;;10.10;;
2257;SDS011;1136;51.574;7.706;2023-06-22T11:11:02;11.67;;;10.87;;
2257;SDS011;1136;51.574;7.706;2023-06-22T11:13:28;12.10;;;11.20;;
2257;SDS011;1136;51.574;7.706;2023-06-22T11:15:55;15.23;;;11.33;;
2257;SDS011;1136;51.574;7.706;2023-06-22T11:18:22;12.20;;;11.27;;
2257;SDS011;1136;51.574;7.706;2023-06-22T11:20:49;12.33;;;11.17;;
2257;SDS011;1136;51.574;7.706;2023-06-22T11:23:18;11.77;;;10.87;;
2257;SDS011;1136;51.574;7.706;2023-06-22T11:25:45;10.50;;;9.70;;
2257;SDS011;1136;51.574;7.706;2023-06-22T11:28:12;11.40;;;10.60;;
2257;SDS011;1136;51.574;7.706;2023-06-22T11:30:39;11.07;;;10.27;;
2257;SDS011;1136;51.574;7.706;2023-06-22T11:33:05;10.77;;;9.87;;
2257;SDS011;1136;51.574;7.706;2023-06-22T11:35:32;10.33;;;9.50;;
2257;SDS011;1136;51.574;7.706;2023-06-22T11:37:59;10.57;;;9.53;;
2257;SDS011;1136;51.574;7.706;2023-06-22T11:40:25;11.53;;;10.63;;
2257;SDS011;1136;51.574;7.706;2023-06-22T11:42:52;14.27;;;12.77;;
2257;SDS011;1136;51.574;7.706;2023-06-22T11:45:19;14.07;;;12.67;;
2257;SDS011;1136;51.574;7.706;2023-06-22T11:47:46;13.70;;;12.50;;
2257;SDS011;1136;51.574;7.706;2023-06-22T11:50:13;15.20;;;13.80;;
2257;SDS011;1136;51.574;7.706;2023-06-22T11:52:40;14.27;;;13.00;;
2257;SDS011;1136;51.574;7.706;2023-06-22T11:55:07;15.37;;;13.83;;
2257;SDS011;1136;51.574;7.706;2023-06-22T11:57:35;17.60;;;16.00;;
2257;SDS011;1136;51.574;7.706;2023-06-22T12:00:03;16.53;;;14.70;;
2257;SDS011;1136;51.574;7.706;2023-06-22T12:02:44;16.93;;;15.47;;
2257;SDS011;1136;51.574;7.706;2023-06-22T12:05:13;15.07;;;13.77;;
2257;SDS011;1136;51.574;7.706;2023-06-22T12:07:40;18.17;;;16.57;;
2257;SDS011;1136;51.574;7.706;2023-06-22T12:10:07;17.77;;;16.03;;
2257;SDS011;1136;51.574;7.706;2023-06-22T12:12:33;17.70;;;16.20;;
2257;SDS011;1136;51.574;7.706;2023-06-22T12:15:00;17.13;;;15.50;;
2257;SDS011;1136;51.574;7.706;2023-06-22T12:17:29;18.00;;;16.40;;
2257;SDS011;1136;51.574;7.706;2023-06-22T12:19:56;21.07;;;19.30;;
2257;SDS011;1136;51.574;7.706;2023-06-22T12:22:24;22.33;;;20.07;;
2257;SDS011;1136;51.574;7.706;2023-06-22T12:24:50;21.33;;;19.53;;
2257;SDS011;1136;51.574;7.706;2023-06-22T12:27:17;20.37;;;18.67;;
2257;SDS011;1136;51.574;7.706;2023-06-22T12:29:46;20.13;;;18.33;;
2257;SDS011;1136;51.574;7.706;2023-06-22T12:32:14;20.97;;;19.17;;
2257;SDS011;1136;51.574;7.706;2023-06-22T12:34:41;21.70;;;19.50;;
2257;SDS011;1136;51.574;7.706;2023-06-22T12:37:09;22.20;;;20.30;;
2257;SDS011;1136;51.574;7.706;2023-06-22T12:39:35;24.27;;;21.87;;
2257;SDS011;1136;51.574;7.706;2023-06-22T12:42:02;24.20;;;21.83;;
2257;SDS011;1136;51.574;7.706;2023-06-22T12:44:29;23.43;;;21.13;;
2257;SDS011;1136;51.574;7.706;2023-06-22T12:46:56;24.73;;;22.40;;
2257;SDS011;1136;51.574;7.706;2023-06-22T12:49:22;24.10;;;21.90;;
2257;SDS011;1136;51.574;7.706;2023-06-22T12:51:49;23.43;;;21.33;;
2257;SDS011;1136;51.574;7.706;2023-06-22T12:54:15;25.93;;;23.40;;
2257;SDS011;1136;51.574;7.706;2023-06-22T12:56:43;26.03;;;23.50;;
2257;SDS011;1136;51.574;7.706;2023-06-22T12:59:11;25.90;;;23.40;;
2257;SDS011;1136;51.574;7.706;2023-06-22T13:01:37;26.50;;;24.20;;
2257;SDS011;1136;51.574;7.706;2023-06-22T13:04:04;27.13;;;24.67;;
2257;SDS011;1136;51.574;7.706;2023-06-22T13:06:31;25.67;;;23.40;;
2257;SDS011;1136;51.574;7.706;2023-06-22T13:08:58;25.90;;;23.60;;
2257;SDS011;1136;51.574;7.706;2023-06-22T13:11:44;26.33;;;23.80;;
2257;SDS011;1136;51.574;7.706;2023-06-22T13:14:11;26.77;;;24.27;;
2257;SDS011;1136;51.574;7.706;2023-06-22T13:16:38;27.47;;;24.17;;
2257;SDS011;1136;51.574;7.706;2023-06-22T13:19:04;24.57;;;22.40;;
2257;SDS011;1136;51.574;7.706;2023-06-22T13:21:31;26.07;;;23.43;;
2257;SDS011;1136;51.574;7.706;2023-06-22T13:23:58;25.07;;;22.97;;
2257;SDS011;1136;51.574;7.706;2023-06-22T13:26:24;22.73;;;20.73;;
2257;SDS011;1136;51.574;7.706;2023-06-22T13:28:52;21.90;;;20.00;;
2257;SDS011;1136;51.574;7.706;2023-06-22T13:31:18;21.47;;;19.80;;
2257;SDS011;1136;51.574;7.706;2023-06-22T13:33:45;24.23;;;21.87;;
2257;SDS011;1136;51.574;7.706;2023-06-22T13:36:14;21.70;;;19.90;;
2257;SDS011;1136;51.574;7.706;2023-06-22T13:38:40;21.40;;;19.70;;
2257;SDS011;1136;51.574;7.706;2023-06-22T13:41:07;21.07;;;19.37;;
2257;SDS011;1136;51.574;7.706;2023-06-22T13:43:33;20.63;;;18.83;;
2257;SDS011;1136;51.574;7.706;2023-06-22T13:46:00;21.53;;;19.63;;
2257;SDS011;1136;51.574;7.706;2023-06-22T13:48:26;20.90;;;19.17;;
2257;SDS011;1136;51.574;7.706;2023-06-22T13:50:54;21.10;;;19.40;;
2257;SDS011;1136;51.574;7.706;2023-06-22T13:53:21;18.73;;;17.10;;
2257;SDS011;1136;51.574;7.706;2023-06-22T13:55:48;17.50;;;16.07;;
2257;SDS011;1136;51.574;7.706;2023-06-22T13:58:14;18.33;;;16.83;;
2257;SDS011;1136;51.574;7.706;2023-06-22T14:00:41;18.50;;;16.90;;
2257;SDS011;1136;51.574;7.706;2023-06-22T14:03:08;18.57;;;17.07;;
2257;SDS011;1136;51.574;7.706;2023-06-22T14:05:34;17.80;;;16.40;;
2257;SDS011;1136;51.574;7.706;2023-06-22T14:08:01;17.80;;;16.10;;
2257;SDS011;1136;51.574;7.706;2023-06-22T14:10:30;17.70;;;16.40;;
2257;SDS011;1136;51.574;7.706;2023-06-22T14:12:57;18.77;;;16.90;;
2257;SDS011;1136;51.574;7.706;2023-06-22T14:15:24;19.10;;;17.20;;
2257;SDS011;1136;51.574;7.706;2023-06-22T14:17:51;17.50;;;16.20;;
2257;SDS011;1136;51.574;7.706;2023-06-22T14:20:18;18.20;;;16.73;;
2257;SDS011;1136;51.574;7.706;2023-06-22T14:22:45;18.70;;;17.30;;
2257;SDS011;1136;51.574;7.706;2023-06-22T14:25:11;17.83;;;16.50;;
2257;SDS011;1136;51.574;7.706;2023-06-22T14:27:38;19.07;;;17.57;;
2257;SDS011;1136;51.574;7.706;2023-06-22T14:30:05;20.90;;;18.77;;
2257;SDS011;1136;51.574;7.706;2023-06-22T14:32:32;17.97;;;16.50;;
2257;SDS011;1136;51.574;7.706;2023-06-22T14:34:59;19.60;;;18.00;;
2257;SDS011;1136;51.574;7.706;2023-06-22T14:37:25;21.47;;;19.73;;
2257;SDS011;1136;51.574;7.706;2023-06-22T14:39:52;19.13;;;17.63;;
2257;SDS011;1136;51.574;7.706;2023-06-22T14:42:18;19.50;;;17.90;;
2257;SDS011;1136;51.574;7.706;2023-06-22T14:44:45;21.47;;;19.57;;
2257;SDS011;1136;51.574;7.706;2023-06-22T14:47:12;19.73;;;18.07;;
2257;SDS011;1136;51.574;7.706;2023-06-22T14:49:38;20.73;;;18.97;;
2257;SDS011;1136;51.574;7.706;2023-06-22T14:52:05;21.70;;;19.87;;
2257;SDS011;1136;51.574;7.706;2023-06-22T14:54:32;21.10;;;19.60;;
2257;SDS011;1136;51.574;7.706;2023-06-22T14:57:00;22.40;;;20.60;;
2257;SDS011;1136;51.574;7.706;2023-06-22T14:59:26;23.90;;;22.00;;
2257;SDS011;1136;51.574;7.706;2023-06-22T15:01:53;23.93;;;22.03;;
2257;SDS011;1136;51.574;7.706;2023-06-22T15:04:20;25.40;;;23.40;;
2257;SDS011;1136;51.574;7.706;2023-06-22T15:06:47;21.03;;;19.33;;